Weather at Nis Airport

Public forecast

Using degrees Celsius for public forecast. Weather courtesy of forecast.io.

Current aviation weather report (METAR) for Nis Airport

2022/12/01 00:00 (retrieved 11 minutes ago)

LYNI 010000Z 05009KT 010V080 9999 FEW017 SCT044 05/01 Q1019 NOSIG

Closest aviation forecast (TAF) to Nis Airport

Forecast is more than 12 hours old.

Closest forecast is Kukës International Airport, 100.7 nm (186.4 km) SW.

2022/11/30 12:00 Ammendment (retrieved 12 hours ago)

TAF AMD LAKU 301529Z 3012/0112 CNL